createdAt,value
2023-08-09T00:01:54.710Z,120.63
2023-08-09T00:04:21.349Z,119.63
2023-08-09T00:06:47.904Z,120.93
2023-08-09T00:09:14.436Z,121.60
2023-08-09T00:11:41.073Z,117.50
2023-08-09T00:14:08.274Z,125.60
2023-08-09T00:16:35.049Z,122.22
2023-08-09T00:19:01.731Z,128.48
2023-08-09T00:21:30.605Z,120.05
2023-08-09T00:23:57.151Z,117.43
2023-08-09T00:26:24.086Z,129.20
2023-08-09T00:28:50.635Z,116.78
2023-08-09T00:31:19.151Z,127.95
2023-08-09T00:33:46.630Z,114.63
2023-08-09T00:36:13.330Z,128.80
2023-08-09T00:38:40.149Z,117.47
2023-08-09T00:41:08.076Z,120.50
2023-08-09T00:43:34.602Z,122.40
2023-08-09T00:46:02.865Z,115.80
2023-08-09T00:48:29.775Z,120.82
2023-08-09T00:50:56.404Z,117.25
2023-08-09T00:53:23.340Z,121.05
2023-08-09T00:55:50.035Z,122.53
2023-08-09T00:58:17.122Z,136.75
2023-08-09T01:00:43.714Z,122.07
2023-08-09T01:03:42.882Z,117.05
2023-08-09T01:06:18.241Z,130.23
2023-08-09T01:08:57.189Z,184.18
2023-08-09T01:11:54.649Z,141.00
2023-08-09T01:14:23.543Z,128.32
2023-08-09T01:16:51.629Z,153.93
2023-08-09T01:19:39.077Z,130.52
2023-08-09T01:22:17.120Z,135.95
2023-08-09T01:24:45.043Z,185.20
2023-08-09T01:27:11.916Z,135.55
2023-08-09T01:29:40.094Z,275.58
2023-08-09T01:32:06.936Z,200.13
2023-08-09T01:34:33.950Z,142.25
2023-08-09T01:37:22.444Z,155.40
2023-08-09T01:39:51.298Z,171.18
2023-08-09T01:42:20.775Z,133.05
2023-08-09T01:44:48.261Z,195.85
2023-08-09T01:47:15.642Z,137.32
2023-08-09T01:49:47.019Z,142.20
2023-08-09T01:52:13.819Z,138.35
2023-08-09T01:54:40.713Z,141.07
2023-08-09T01:57:07.556Z,152.23
2023-08-09T01:59:34.188Z,138.10
2023-08-09T02:02:00.836Z,160.13
2023-08-09T02:04:27.408Z,146.10
2023-08-09T02:06:54.186Z,152.18
2023-08-09T02:09:20.795Z,139.02
2023-08-09T02:11:47.633Z,141.68
2023-08-09T02:14:14.183Z,135.80
2023-08-09T02:16:41.959Z,145.48
2023-08-09T02:19:10.726Z,148.93
2023-08-09T02:21:43.544Z,136.55
2023-08-09T02:24:10.088Z,142.00
2023-08-09T02:26:39.780Z,134.73
2023-08-09T02:29:06.589Z,145.30
2023-08-09T02:31:33.237Z,144.57
2023-08-09T02:34:00.002Z,138.75
2023-08-09T02:36:26.682Z,203.45
2023-08-09T02:38:53.432Z,138.20
2023-08-09T02:41:23.097Z,150.93
2023-08-09T02:43:49.718Z,133.82
2023-08-09T02:46:16.551Z,144.40
2023-08-09T02:48:43.384Z,161.57
2023-08-09T02:51:09.955Z,139.38
2023-08-09T02:53:58.526Z,150.63
2023-08-09T02:56:25.159Z,153.95
2023-08-09T02:58:51.731Z,133.65
2023-08-09T03:01:18.374Z,184.88
2023-08-09T03:03:45.285Z,138.77
2023-08-09T03:06:12.126Z,158.02
2023-08-09T03:08:38.840Z,140.73
2023-08-09T03:11:05.529Z,146.70
2023-08-09T03:13:32.308Z,142.05
2023-08-09T03:15:58.921Z,140.95
2023-08-09T03:18:25.588Z,151.50
2023-08-09T03:20:53.389Z,142.20
2023-08-09T03:23:19.997Z,165.93
2023-08-09T03:25:47.198Z,137.02
2023-08-09T03:28:13.926Z,166.13
2023-08-09T03:30:40.501Z,136.05
2023-08-09T03:33:07.236Z,152.18
2023-08-09T03:35:34.944Z,160.25
2023-08-09T03:38:01.679Z,181.88
2023-08-09T03:40:28.308Z,178.07
2023-08-09T03:42:55.632Z,179.57
2023-08-09T03:45:24.210Z,176.57
2023-08-09T03:47:53.662Z,180.07
2023-08-09T03:50:21.389Z,181.35
2023-08-09T03:52:47.945Z,161.55
2023-08-09T03:55:14.791Z,182.88
2023-08-09T03:57:42.499Z,146.48
2023-08-09T04:00:10.510Z,192.80
2023-08-09T04:02:40.179Z,167.05
2023-08-09T04:05:07.231Z,171.38
2023-08-09T04:07:35.130Z,229.77
2023-08-09T04:10:01.858Z,182.32
2023-08-09T04:12:28.512Z,169.18
2023-08-09T04:14:55.039Z,143.20
2023-08-09T04:17:21.696Z,171.95
2023-08-09T04:19:48.280Z,154.75
2023-08-09T04:22:15.090Z,182.32
2023-08-09T04:24:41.687Z,153.25
2023-08-09T04:27:08.329Z,139.63
2023-08-09T04:29:35.127Z,151.20
2023-08-09T04:32:01.776Z,136.63
2023-08-09T04:34:28.280Z,159.60
2023-08-09T04:36:54.847Z,142.15
2023-08-09T04:39:21.733Z,189.98
2023-08-09T04:41:48.541Z,157.40
2023-08-09T04:44:15.052Z,136.98
2023-08-09T04:46:42.405Z,218.48
2023-08-09T04:49:08.989Z,140.30
2023-08-09T04:51:35.882Z,195.50
2023-08-09T04:54:02.441Z,137.35
2023-08-09T04:56:29.144Z,144.05
2023-08-09T04:58:55.691Z,141.85
2023-08-09T05:01:22.233Z,136.27
2023-08-09T05:03:48.826Z,149.35
2023-08-09T05:06:15.440Z,143.50
2023-08-09T05:08:42.025Z,153.10
2023-08-09T05:11:08.549Z,141.95
2023-08-09T05:13:35.142Z,147.43
2023-08-09T05:16:01.808Z,135.63
2023-08-09T05:18:28.397Z,145.57
2023-08-09T05:20:55.035Z,142.15
2023-08-09T05:23:21.716Z,142.82
2023-08-09T05:25:48.407Z,150.85
2023-08-09T05:28:14.950Z,137.02
2023-08-09T05:30:41.728Z,159.23
2023-08-09T05:33:08.378Z,143.05
2023-08-09T05:35:35.002Z,149.68
2023-08-09T05:38:01.522Z,144.13
2023-08-09T05:40:28.152Z,152.35
2023-08-09T05:42:54.814Z,148.40
2023-08-09T05:45:22.129Z,167.55
2023-08-09T05:47:48.642Z,155.02
2023-08-09T05:50:16.228Z,174.50
2023-08-09T05:52:43.466Z,229.75
2023-08-09T05:55:10.602Z,185.85
2023-08-09T05:57:37.985Z,166.40
2023-08-09T06:00:06.998Z,160.52
2023-08-09T06:02:34.611Z,162.45
2023-08-09T06:05:01.773Z,157.68
2023-08-09T06:07:29.934Z,160.73
2023-08-09T06:09:56.554Z,164.00
2023-08-09T06:12:23.114Z,157.10
2023-08-09T06:14:49.740Z,170.90
2023-08-09T06:17:16.257Z,159.90
2023-08-09T06:19:42.798Z,183.82
2023-08-09T06:22:09.791Z,171.98
2023-08-09T06:24:36.332Z,166.70
2023-08-09T06:27:03.095Z,196.02
2023-08-09T06:29:29.921Z,175.15
2023-08-09T06:31:56.483Z,198.60
2023-08-09T06:34:23.665Z,178.18
2023-08-09T06:36:50.248Z,188.85
2023-08-09T06:39:16.772Z,184.50
2023-08-09T06:41:43.619Z,179.18
2023-08-09T06:44:10.193Z,177.43
2023-08-09T06:46:37.258Z,163.20
2023-08-09T06:49:03.874Z,191.82
2023-08-09T06:51:30.394Z,170.70
2023-08-09T06:53:56.949Z,238.07
2023-08-09T06:56:24.539Z,170.00
2023-08-09T06:58:51.061Z,191.65
2023-08-09T07:01:18.228Z,188.95
2023-08-09T07:03:45.149Z,185.60
2023-08-09T07:06:11.769Z,182.43
2023-08-09T07:08:38.355Z,182.57
2023-08-09T07:11:05.103Z,197.90
2023-08-09T07:13:31.708Z,175.95
2023-08-09T07:15:58.326Z,202.93
2023-08-09T07:18:26.417Z,169.98
2023-08-09T07:20:52.955Z,197.25
2023-08-09T07:23:35.168Z,205.15
2023-08-09T07:26:07.628Z,217.45
2023-08-09T07:28:34.172Z,191.90
2023-08-09T07:31:01.090Z,225.63
2023-08-09T07:33:27.687Z,200.73
2023-08-09T07:35:54.810Z,237.93
2023-08-09T07:38:21.460Z,208.90
2023-08-09T07:40:47.966Z,225.05
2023-08-09T07:43:14.546Z,235.15
2023-08-09T07:45:43.683Z,250.18
2023-08-09T07:48:10.475Z,263.90
2023-08-09T07:50:37.213Z,240.10
2023-08-09T07:53:04.068Z,241.75
2023-08-09T07:55:32.613Z,226.02
2023-08-09T07:57:59.340Z,238.88
2023-08-09T08:00:31.588Z,284.80
2023-08-09T08:03:02.083Z,259.02
2023-08-09T08:05:28.809Z,307.38
2023-08-09T08:07:55.664Z,290.67
2023-08-09T08:10:23.856Z,337.85
2023-08-09T08:12:50.826Z,292.77
2023-08-09T08:15:18.058Z,331.92
2023-08-09T08:17:47.417Z,260.70
2023-08-09T08:20:17.131Z,339.58
2023-08-09T08:22:48.518Z,246.05
2023-08-09T08:27:46.917Z,240.80
2023-08-09T08:30:15.526Z,369.92
2023-08-09T08:32:42.367Z,257.55
2023-08-09T08:35:12.748Z,302.90
2023-08-09T08:37:40.303Z,277.77
2023-08-09T08:40:09.639Z,332.90
2023-08-09T08:42:37.639Z,311.85
2023-08-09T08:45:12.563Z,345.77
2023-08-09T08:47:40.461Z,364.90
2023-08-09T08:50:09.704Z,463.25
2023-08-09T08:52:41.749Z,325.52
2023-08-09T08:55:11.067Z,369.02
2023-08-09T08:57:39.348Z,300.70
2023-08-09T09:00:25.233Z,322.15
2023-08-09T09:02:53.933Z,272.20
2023-08-09T09:05:20.725Z,309.65
2023-08-09T09:07:50.804Z,253.00
2023-08-09T09:10:20.215Z,312.48
2023-08-09T09:12:47.096Z,237.02
2023-08-09T09:15:15.483Z,267.63
2023-08-09T09:17:43.937Z,223.57
2023-08-09T09:20:16.266Z,258.02
2023-08-09T09:22:42.809Z,230.45
2023-08-09T09:25:12.768Z,282.92
2023-08-09T09:27:43.366Z,239.60
2023-08-09T09:30:13.890Z,281.70
2023-08-09T09:32:52.717Z,272.60
2023-08-09T09:35:20.330Z,303.35
2023-08-09T09:37:51.632Z,252.85
2023-08-09T09:40:35.662Z,300.35
2023-08-09T09:43:05.597Z,263.75
2023-08-09T09:45:34.294Z,263.55
2023-08-09T09:48:03.239Z,297.45
2023-08-09T09:50:32.291Z,296.02
2023-08-09T09:53:00.162Z,281.58
2023-08-09T09:55:26.919Z,316.27
2023-08-09T09:57:54.691Z,280.15
2023-08-09T10:00:21.592Z,338.80
2023-08-09T10:02:50.771Z,293.48
2023-08-09T10:05:23.128Z,331.05
2023-08-09T10:07:53.872Z,272.38
2023-08-09T10:10:21.516Z,346.73
2023-08-09T10:12:52.535Z,288.98
2023-08-09T10:15:32.529Z,400.58
2023-08-09T10:18:05.587Z,299.67
2023-08-09T10:20:33.137Z,322.25
2023-08-09T10:22:59.934Z,332.02
2023-08-09T10:25:46.138Z,321.75
2023-08-09T10:28:13.487Z,332.90
2023-08-09T10:30:50.263Z,337.17
2023-08-09T10:33:20.824Z,412.10
2023-08-09T10:35:49.920Z,359.23
2023-08-09T10:38:19.877Z,351.50
2023-08-09T10:40:53.578Z,341.40
2023-08-09T10:43:25.622Z,346.30
2023-08-09T10:45:55.463Z,308.35
2023-08-09T10:48:24.783Z,321.67
2023-08-09T10:51:01.961Z,313.02
2023-08-09T10:53:28.770Z,320.85
2023-08-09T10:55:58.987Z,311.65
2023-08-09T10:58:30.580Z,321.95
2023-08-09T11:00:57.417Z,301.15
2023-08-09T11:03:24.207Z,310.13
2023-08-09T11:05:51.236Z,288.55
2023-08-09T11:08:19.984Z,325.02
2023-08-09T11:10:47.478Z,313.48
2023-08-09T11:13:15.849Z,350.50
2023-08-09T11:15:44.604Z,350.42
2023-08-09T11:18:11.385Z,372.52
2023-08-09T11:20:38.018Z,373.30
2023-08-09T11:23:05.255Z,404.25
2023-08-09T11:25:33.253Z,391.85
2023-08-09T11:28:02.503Z,456.80
2023-08-09T11:30:31.207Z,459.35
2023-08-09T11:33:03.672Z,442.50
2023-08-09T11:35:39.624Z,488.33
2023-08-09T11:38:10.929Z,472.23
2023-08-09T11:40:41.721Z,450.17
2023-08-09T11:43:11.936Z,485.65
2023-08-09T11:45:53.693Z,422.95
2023-08-09T11:48:35.185Z,486.75
2023-08-09T11:51:16.225Z,393.60
2023-08-09T11:53:44.668Z,384.52
2023-08-09T11:56:20.001Z,387.00
2023-08-09T11:58:48.589Z,366.77
2023-08-09T12:01:15.974Z,411.00
2023-08-09T12:03:43.213Z,370.92
2023-08-09T12:06:10.460Z,384.45
2023-08-09T12:08:38.529Z,348.20
2023-08-09T12:11:05.588Z,361.52
2023-08-09T12:13:32.952Z,347.00
2023-08-09T12:16:00.046Z,373.77
2023-08-09T12:18:26.731Z,402.33
2023-08-09T12:20:55.383Z,413.52
2023-08-09T12:23:22.064Z,446.92
2023-08-09T12:25:48.640Z,444.13
2023-08-09T12:28:15.522Z,476.02
2023-08-09T12:30:42.429Z,433.58
2023-08-09T12:33:10.032Z,456.42
2023-08-09T12:35:36.767Z,427.48
2023-08-09T12:38:03.875Z,431.38
2023-08-09T12:40:30.645Z,432.00
2023-08-09T12:42:57.520Z,424.80
2023-08-09T12:45:24.331Z,402.80
2023-08-09T12:47:51.000Z,372.80
2023-08-09T12:50:17.745Z,465.92
2023-08-09T12:52:47.342Z,361.50
2023-08-09T12:55:19.164Z,539.38
2023-08-09T12:57:47.303Z,416.83
2023-08-09T13:00:15.110Z,480.85
2023-08-09T13:02:41.844Z,491.15
2023-08-09T13:05:10.003Z,554.08
2023-08-09T13:07:36.878Z,505.33
2023-08-09T13:10:05.301Z,587.58
2023-08-09T13:12:34.156Z,643.40
2023-08-09T13:15:01.811Z,665.63
2023-08-09T13:17:30.614Z,623.50
2023-08-09T13:19:58.014Z,582.65
2023-08-09T13:22:25.144Z,603.28
2023-08-09T13:24:51.930Z,568.53
2023-08-09T13:27:18.674Z,391.13
2023-08-09T13:29:45.262Z,414.50
2023-08-09T13:32:12.610Z,593.95
2023-08-09T13:34:39.214Z,377.75
2023-08-09T13:37:05.776Z,584.15
2023-08-09T13:39:32.372Z,582.88
2023-08-09T13:41:59.098Z,584.47
2023-08-09T13:44:25.768Z,661.25
2023-08-09T13:46:52.336Z,632.58
2023-08-09T13:49:18.953Z,649.95
2023-08-09T13:51:45.761Z,643.45
2023-08-09T13:54:12.504Z,584.85
2023-08-09T13:56:39.135Z,608.50
2023-08-09T13:59:05.721Z,628.10
2023-08-09T14:01:34.666Z,660.03
2023-08-09T14:04:01.570Z,575.20
2023-08-09T14:06:28.286Z,561.28
2023-08-09T14:08:55.117Z,425.33
2023-08-09T14:11:21.633Z,411.40
2023-08-09T14:13:49.010Z,412.77
2023-08-09T14:16:15.604Z,446.75
2023-08-09T14:18:42.561Z,540.28
2023-08-09T14:21:10.376Z,518.45
2023-08-09T14:23:40.531Z,528.30
2023-08-09T14:26:08.261Z,441.45
2023-08-09T14:28:36.685Z,468.10
2023-08-09T14:31:04.928Z,489.85
2023-08-09T14:33:33.277Z,438.33
2023-08-09T14:36:00.720Z,411.92
2023-08-09T14:38:28.278Z,442.15
2023-08-09T14:40:55.752Z,481.05
2023-08-09T14:43:23.204Z,565.03
2023-08-09T14:45:50.686Z,508.52
2023-08-09T14:48:18.166Z,517.67
2023-08-09T14:50:47.078Z,478.63
2023-08-09T14:53:14.188Z,486.20
2023-08-09T14:55:43.508Z,454.90
2023-08-09T14:58:10.359Z,529.78
2023-08-09T15:00:37.919Z,395.38
2023-08-09T15:03:05.231Z,416.33
2023-08-09T15:05:32.129Z,374.38
2023-08-09T15:07:59.783Z,427.88
2023-08-09T15:10:26.408Z,368.33
2023-08-09T15:12:53.274Z,359.50
2023-08-09T15:15:20.286Z,394.58
2023-08-09T15:17:47.286Z,309.27
2023-08-09T15:20:14.031Z,334.52
2023-08-09T15:22:40.706Z,360.83
2023-08-09T15:25:20.018Z,323.85
2023-08-09T15:27:47.754Z,290.13
2023-08-09T15:30:20.005Z,306.25
2023-08-09T15:32:49.351Z,267.55
2023-08-09T15:35:16.088Z,267.30
2023-08-09T15:37:42.958Z,238.27
2023-08-09T15:40:10.410Z,285.60
2023-08-09T15:42:37.736Z,230.57
2023-08-09T15:45:05.022Z,237.20
2023-08-09T15:47:31.955Z,252.02
2023-08-09T15:49:58.656Z,228.20
2023-08-09T15:52:25.361Z,287.25
2023-08-09T15:54:51.887Z,225.85
2023-08-09T15:57:18.714Z,246.63
2023-08-09T15:59:45.458Z,224.57
2023-08-09T16:02:15.192Z,237.90
2023-08-09T16:04:41.960Z,229.32
2023-08-09T16:07:10.173Z,210.35
2023-08-09T16:09:40.990Z,276.40
2023-08-09T16:12:08.692Z,193.05
2023-08-09T16:14:35.469Z,285.08
2023-08-09T16:17:02.546Z,191.10
2023-08-09T16:19:29.605Z,191.35
2023-08-09T16:21:56.650Z,193.10
2023-08-09T16:24:23.259Z,183.77
2023-08-09T16:26:50.135Z,220.15
2023-08-09T16:29:16.968Z,187.45
2023-08-09T16:31:43.726Z,199.93
2023-08-09T16:34:10.267Z,185.85
2023-08-09T16:36:36.798Z,203.15
2023-08-09T16:39:03.558Z,182.48
2023-08-09T16:41:30.202Z,250.25
2023-08-09T16:43:56.975Z,186.73
2023-08-09T16:46:24.233Z,268.27
2023-08-09T16:48:50.902Z,186.43
2023-08-09T16:51:17.731Z,179.80
2023-08-09T16:53:44.304Z,167.13
2023-08-09T16:56:12.270Z,167.32
2023-08-09T16:58:38.875Z,202.45
2023-08-09T17:01:06.357Z,171.00
2023-08-09T17:03:33.069Z,247.43
2023-08-09T17:06:00.249Z,174.13
2023-08-09T17:08:26.929Z,190.40
2023-08-09T17:10:53.465Z,161.93
2023-08-09T17:13:20.729Z,184.75
2023-08-09T17:15:47.626Z,161.63
2023-08-09T17:18:14.530Z,170.27
2023-08-09T17:20:41.114Z,178.52
2023-08-09T17:23:07.704Z,175.57
2023-08-09T17:25:34.353Z,179.90
2023-08-09T17:28:01.032Z,167.85
2023-08-09T17:30:28.956Z,217.38
2023-08-09T17:32:58.425Z,166.35
2023-08-09T17:35:28.762Z,181.10
2023-08-09T17:37:55.628Z,161.93
2023-08-09T17:40:22.692Z,172.73
2023-08-09T17:42:49.294Z,167.85
2023-08-09T17:45:16.185Z,197.95
2023-08-09T17:47:44.804Z,160.00
2023-08-09T17:50:11.533Z,200.02
2023-08-09T17:52:38.050Z,176.13
2023-08-09T17:55:05.177Z,181.38
2023-08-09T17:57:31.853Z,185.15
2023-08-09T17:59:58.409Z,177.73
2023-08-09T18:02:25.085Z,189.85
2023-08-09T18:04:51.707Z,179.52
2023-08-09T18:07:18.725Z,174.75
2023-08-09T18:09:46.141Z,180.70
2023-08-09T18:12:12.734Z,166.20
2023-08-09T18:14:39.310Z,195.65
2023-08-09T18:17:06.167Z,181.93
2023-08-09T18:19:32.992Z,183.20
2023-08-09T18:21:59.680Z,195.30
2023-08-09T18:24:26.338Z,180.20
2023-08-09T18:26:52.987Z,191.45
2023-08-09T18:29:19.733Z,186.50
2023-08-09T18:31:46.882Z,236.38
2023-08-09T18:34:13.682Z,160.60
2023-08-09T18:36:40.330Z,164.48
2023-08-09T18:39:07.061Z,152.00
2023-08-09T18:41:33.576Z,167.63
2023-08-09T18:44:00.130Z,155.15
2023-08-09T18:46:27.000Z,168.23
2023-08-09T18:48:53.677Z,168.68
2023-08-09T18:51:20.294Z,150.77
2023-08-09T18:53:46.895Z,158.88
2023-08-09T18:56:13.700Z,141.60
2023-08-09T18:58:40.276Z,153.48
2023-08-09T19:01:07.741Z,167.95
2023-08-09T19:03:34.611Z,141.18
2023-08-09T19:06:01.421Z,156.57
2023-08-09T19:08:28.002Z,142.60
2023-08-09T19:10:54.754Z,163.38
2023-08-09T19:13:21.393Z,144.13
2023-08-09T19:15:48.090Z,171.52
2023-08-09T19:18:14.703Z,134.52
2023-08-09T19:20:41.409Z,141.90
2023-08-09T19:23:07.946Z,167.00
2023-08-09T19:25:35.946Z,135.85
2023-08-09T19:28:02.532Z,147.40
2023-08-09T19:30:29.685Z,132.35
2023-08-09T19:32:56.425Z,154.20
2023-08-09T19:35:23.134Z,141.52
2023-08-09T19:37:49.917Z,157.68
2023-08-09T19:40:16.740Z,181.93
2023-08-09T19:42:43.637Z,171.10
2023-08-09T19:45:10.696Z,173.55
2023-08-09T19:47:37.581Z,135.15
2023-08-09T19:50:05.318Z,154.05
2023-08-09T19:52:32.101Z,135.02
2023-08-09T19:54:58.878Z,205.40
2023-08-09T19:57:25.434Z,130.00
2023-08-09T19:59:51.988Z,149.07
2023-08-09T20:02:19.470Z,143.25
2023-08-09T20:04:47.070Z,152.32
2023-08-09T20:07:14.657Z,132.60
2023-08-09T20:09:41.642Z,147.27
2023-08-09T20:12:08.866Z,136.13
2023-08-09T20:14:35.494Z,131.68
2023-08-09T20:17:02.996Z,144.50
2023-08-09T20:19:31.750Z,127.10
2023-08-09T20:21:58.342Z,144.18
2023-08-09T20:24:44.441Z,138.82
2023-08-09T20:27:12.164Z,125.00
2023-08-09T20:29:39.344Z,183.88
2023-08-09T20:32:07.254Z,128.27
2023-08-09T20:34:34.453Z,171.98
2023-08-09T20:37:01.243Z,127.38
2023-08-09T20:39:29.170Z,149.75
2023-08-09T20:41:55.963Z,122.82
2023-08-09T20:44:22.629Z,124.55
2023-08-09T20:46:49.292Z,126.93
2023-08-09T20:49:15.954Z,124.35
2023-08-09T20:51:42.608Z,14.32
2023-08-09T20:54:09.482Z,2.83
2023-08-09T20:56:36.215Z,3.08
2023-08-09T20:59:04.549Z,126.35
2023-08-09T21:01:32.472Z,126.65
2023-08-09T21:04:00.327Z,125.70
2023-08-09T21:06:27.567Z,126.55
2023-08-09T21:08:54.451Z,122.25
2023-08-09T21:11:21.556Z,116.75
2023-08-09T21:13:48.092Z,123.38
2023-08-09T21:16:15.563Z,120.25
2023-08-09T21:18:45.112Z,129.23
2023-08-09T21:21:14.160Z,115.10
2023-08-09T21:26:11.254Z,145.23
2023-08-09T21:28:39.075Z,252.38
2023-08-09T21:31:05.697Z,141.82
2023-08-09T21:33:32.257Z,159.00
2023-08-09T21:35:58.995Z,145.25
2023-08-09T21:38:25.767Z,169.80
2023-08-09T21:40:59.328Z,136.27
2023-08-09T21:43:26.791Z,142.98
2023-08-09T21:45:54.033Z,136.32
2023-08-09T21:48:21.355Z,166.43
2023-08-09T21:50:51.130Z,161.63
2023-08-09T21:53:19.091Z,150.50
2023-08-09T21:55:45.876Z,157.70
2023-08-09T21:58:13.312Z,143.32
2023-08-09T22:00:41.090Z,204.75
2023-08-09T22:03:08.646Z,140.35
2023-08-09T22:05:35.864Z,170.85
2023-08-09T22:08:03.930Z,130.27
2023-08-09T22:10:31.182Z,146.10
2023-08-09T22:12:58.080Z,132.60
2023-08-09T22:15:25.496Z,158.05
2023-08-09T22:17:52.366Z,142.57
2023-08-09T22:20:20.921Z,159.05
2023-08-09T22:22:47.657Z,150.07
2023-08-09T22:25:14.623Z,165.60
2023-08-09T22:27:41.677Z,165.02
2023-08-09T22:30:08.838Z,195.50
2023-08-09T22:32:35.566Z,158.52
2023-08-09T22:35:02.456Z,150.20
2023-08-09T22:37:30.991Z,181.82
2023-08-09T22:39:57.818Z,173.90
2023-08-09T22:42:24.438Z,152.88
2023-08-09T22:44:51.251Z,162.32
2023-08-09T22:47:18.090Z,225.63
2023-08-09T22:49:44.708Z,182.88
2023-08-09T22:52:11.563Z,204.45
2023-08-09T22:54:38.328Z,151.35
2023-08-09T22:57:05.160Z,142.18
2023-08-09T22:59:31.861Z,136.50
2023-08-09T23:01:59.050Z,181.88
2023-08-09T23:04:25.916Z,207.15
2023-08-09T23:06:52.657Z,150.95
2023-08-09T23:09:19.719Z,144.18
2023-08-09T23:11:47.536Z,153.50
2023-08-09T23:14:15.301Z,168.82
2023-08-09T23:16:42.223Z,196.43
2023-08-09T23:19:08.951Z,158.52
2023-08-09T23:21:35.648Z,159.00
2023-08-09T23:24:02.441Z,145.80
2023-08-09T23:26:29.202Z,132.45
2023-08-09T23:28:56.022Z,137.18
2023-08-09T23:31:22.636Z,169.65
2023-08-09T23:33:49.190Z,137.68
2023-08-09T23:36:15.928Z,147.35
2023-08-09T23:38:42.907Z,148.55
2023-08-09T23:41:09.644Z,155.50
2023-08-09T23:43:36.245Z,151.95
2023-08-09T23:46:02.939Z,154.65
2023-08-09T23:48:29.614Z,217.40
2023-08-09T23:50:56.469Z,164.48
2023-08-09T23:53:23.178Z,182.10
2023-08-09T23:55:49.709Z,156.55
2023-08-09T23:58:16.437Z,208.45
